Time;durP1;ratioP1;P1;durP2;ratioP2;P2;SDS_P1;SDS_P2;PMS_P1;PMS_P2;Temp;Humidity;BMP_temperature;BMP_pressure;BME280_temperature;BME280_humidity;BME280_pressure;Samples;Min_cycle;Max_cycle;Signal;HPM_P1;HPM_P2
2022/06/18 00:01:20;;;;;;;2.80;2.13;;;20.80;99.90;;;-144.05;44.96;125687.94;6155297;23;20009;-83
2022/06/18 00:03:46;;;;;;;5.20;2.03;;;20.90;99.90;;;-144.05;44.71;125687.94;6154302;23;20048;-85
2022/06/18 00:06:12;;;;;;;4.03;2.33;;;21.00;99.90;;;-144.05;44.83;125687.94;6155091;23;20076;-88
2022/06/18 00:08:38;;;;;;;4.05;2.30;;;21.00;99.90;;;-144.05;44.67;125687.94;6154580;23;20353;-86
2022/06/18 00:13:50;;;;;;;3.17;1.80;;;21.00;99.90;;;-144.05;44.81;125687.94;6156216;23;20352;-85
2022/06/18 00:16:21;;;;;;;4.78;1.90;;;21.00;99.90;;;-144.05;45.06;125687.94;6154370;23;20017;-87
2022/06/18 00:18:49;;;;;;;2.70;2.00;;;21.00;99.90;;;-144.05;45.02;125687.94;6154695;23;20389;-85
2022/06/18 00:21:25;;;;;;;3.50;2.03;;;20.90;99.90;;;-144.05;45.09;125687.94;6154006;23;20435;-83
2022/06/18 00:23:51;;;;;;;2.40;1.83;;;21.00;99.90;;;-144.05;44.95;125687.94;6154097;23;20009;-86
2022/06/18 00:26:18;;;;;;;3.72;2.17;;;21.00;99.90;;;-144.05;44.88;125687.94;6154342;23;20014;-86
2022/06/18 00:28:44;;;;;;;3.70;1.95;;;21.00;99.90;;;-144.05;44.98;125687.94;6153447;23;20005;-83
2022/06/18 00:31:11;;;;;;;2.40;1.90;;;21.00;99.90;;;-144.05;44.82;125687.94;6154004;23;20379;-86
2022/06/18 00:33:40;;;;;;;4.68;1.90;;;21.00;99.90;;;-144.05;44.85;125687.94;6153290;23;20387;-85
2022/06/18 00:36:15;;;;;;;2.83;1.80;;;21.00;99.90;;;-144.05;44.73;125687.94;6153102;23;20024;-86
2022/06/18 00:38:47;;;;;;;2.33;1.67;;;21.00;99.90;;;-144.05;44.79;125687.94;6153674;23;20344;-86
2022/06/18 00:41:26;;;;;;;2.55;2.03;;;21.10;99.90;;;-144.05;44.73;125687.94;6153233;23;20009;-86
2022/06/18 00:44:01;;;;;;;2.58;1.95;;;21.10;99.90;;;-144.05;44.89;125687.94;6153241;23;20054;-83
2022/06/18 00:46:47;;;;;;;5.03;1.80;;;21.10;99.90;;;-144.05;44.76;125687.94;6153758;23;20156;-85
2022/06/18 00:49:47;;;;;;;7.47;2.20;;;21.10;99.90;;;-144.05;44.65;125687.94;6153223;23;20005;-86
2022/06/18 00:52:30;;;;;;;3.92;1.92;;;21.10;99.90;;;-144.05;44.75;125687.94;6153420;23;20002;-86
2022/06/18 00:55:15;;;;;;;2.95;1.70;;;21.10;99.90;;;-144.05;44.87;125687.94;6154049;23;20092;-85
2022/06/18 00:58:07;;;;;;;3.95;2.13;;;21.10;99.90;;;-144.05;44.62;125687.94;6154350;23;20099;-84
2022/06/18 01:00:44;;;;;;;3.15;1.88;;;21.10;99.90;;;-144.05;44.59;125687.94;6155300;23;20017;-85
2022/06/18 01:03:35;;;;;;;5.78;1.73;;;21.20;99.90;;;-144.05;44.39;125687.94;6155573;23;20020;-86
2022/06/18 01:06:15;;;;;;;3.85;1.70;;;21.30;99.90;;;-144.05;44.21;125687.94;6155624;23;20015;-85
2022/06/18 01:08:44;;;;;;;4.78;2.00;;;21.30;99.90;;;-144.05;44.34;125687.94;6158362;23;20010;-89
2022/06/18 01:11:22;;;;;;;2.58;1.60;;;21.30;99.90;;;-144.05;44.38;125687.94;6187127;23;20009;-86
2022/06/18 01:13:49;;;;;;;4.35;1.80;;;21.30;99.90;;;-144.05;44.25;125687.94;6154957;23;20005;-85
2022/06/18 01:16:18;;;;;;;4.32;2.05;;;21.40;99.90;;;-144.05;43.97;125687.94;6155110;23;20432;-86
2022/06/18 01:18:48;;;;;;;2.38;1.90;;;21.50;99.90;;;-144.05;43.77;125687.94;6155191;23;20085;-87
2022/06/18 01:21:49;;;;;;;4.32;1.77;;;21.50;99.90;;;-144.05;43.70;125687.94;6155745;23;20377;-85
2022/06/18 01:24:32;;;;;;;3.53;1.70;;;21.60;99.90;;;-144.05;43.80;125687.94;6180308;23;20005;-86
2022/06/18 01:27:00;;;;;;;2.13;1.85;;;21.70;99.90;;;-144.05;43.56;125687.94;6155930;23;20020;-84
2022/06/18 01:29:26;;;;;;;2.28;1.65;;;21.70;99.90;;;-144.05;43.19;125687.94;6156401;23;20448;-84
2022/06/18 01:31:52;;;;;;;4.30;1.75;;;21.80;99.90;;;-144.05;43.15;125687.94;6156784;23;20016;-85
2022/06/18 01:34:20;;;;;;;3.30;1.80;;;21.80;99.90;;;-144.05;43.34;125687.94;6157590;23;20014;-86
2022/06/18 01:36:47;;;;;;;3.67;1.73;;;21.80;99.90;;;-144.05;43.26;125687.94;6157096;23;20017;-86
2022/06/18 01:39:24;;;;;;;5.22;1.70;;;21.90;99.90;;;-144.05;43.39;125687.94;6157274;23;20329;-86
2022/06/18 01:42:09;;;;;;;4.78;2.00;;;21.90;99.90;;;-144.05;43.05;125687.94;6157471;23;20013;-86
2022/06/18 01:45:02;;;;;;;5.67;1.77;;;21.90;99.90;;;-144.05;43.25;125687.94;6159897;23;20013;-87
2022/06/18 01:47:43;;;;;;;4.80;1.60;;;21.90;99.90;;;-144.05;43.01;125687.94;6158560;23;20545;-87
2022/06/18 01:50:33;;;;;;;3.63;1.58;;;21.80;99.90;;;-144.05;43.01;125687.94;6160938;23;20084;-86
2022/06/18 01:53:23;;;;;;;2.47;1.70;;;21.90;99.90;;;-144.05;42.93;125687.94;6162064;23;20032;-88
2022/06/18 01:56:04;;;;;;;2.53;1.80;;;21.90;99.90;;;-144.05;42.86;125687.94;6168623;23;20012;-87
2022/06/18 01:58:46;;;;;;;4.10;1.88;;;21.90;99.90;;;-144.05;42.70;125687.94;6180448;23;19993;-85
2022/06/18 02:01:25;;;;;;;3.60;2.25;;;22.00;99.90;;;-144.05;42.78;125687.94;6154357;23;20091;-86
2022/06/18 02:03:55;;;;;;;3.22;1.88;;;22.00;99.90;;;-144.05;42.53;125687.94;6154924;23;20005;-87
2022/06/18 02:06:21;;;;;;;4.72;2.00;;;22.00;99.90;;;-144.05;42.60;125687.94;6155855;23;20010;-86
2022/06/18 02:08:49;;;;;;;2.25;1.77;;;22.00;99.90;;;-144.05;42.67;125687.94;6154433;23;20016;-84
2022/06/18 02:11:19;;;;;;;2.15;1.73;;;22.00;99.90;;;-144.05;42.74;125687.94;6154165;23;20466;-85
2022/06/18 02:14:00;;;;;;;4.75;2.05;;;22.00;99.90;;;-144.05;42.55;125687.94;6154623;23;20029;-86
2022/06/18 02:16:37;;;;;;;6.78;2.10;;;22.00;99.90;;;-144.05;42.49;125687.94;6154861;23;20368;-85
2022/06/18 02:19:08;;;;;;;3.92;1.65;;;22.00;99.90;;;-144.05;42.63;125687.94;6154565;23;20005;-85
2022/06/18 02:21:46;;;;;;;4.90;1.67;;;22.00;99.90;;;-144.05;42.69;125687.94;6156452;23;20016;-86
2022/06/18 02:24:12;;;;;;;4.18;2.00;;;22.00;99.90;;;-144.05;42.79;125687.94;6179275;23;20440;-85
2022/06/18 02:26:43;;;;;;;2.75;1.60;;;22.10;99.90;;;-144.05;42.68;125687.94;6154975;23;20097;-87
2022/06/18 02:29:27;;;;;;;7.38;1.75;;;22.00;99.90;;;-144.05;42.53;125687.94;6155834;23;20004;-84
2022/06/18 02:31:55;;;;;;;3.83;1.60;;;22.00;99.90;;;-144.05;42.49;125687.94;6154163;23;20436;-85
2022/06/18 02:34:33;;;;;;;4.28;1.65;;;22.00;99.90;;;-144.05;42.91;125687.94;6154237;23;20012;-85
2022/06/18 02:37:13;;;;;;;2.20;1.75;;;22.00;99.90;;;-144.05;42.69;125687.94;6154313;23;20515;-84
2022/06/18 02:39:58;;;;;;;5.13;1.90;;;22.00;99.90;;;-144.05;42.67;125687.94;6154226;23;20088;-85
2022/06/18 02:42:32;;;;;;;1.80;1.48;;;21.90;99.90;;;-144.05;43.01;125687.94;6154864;23;20095;-85
2022/06/18 02:45:03;;;;;;;3.05;1.80;;;21.90;99.90;;;-144.05;43.16;125687.94;6179194;23;20013;-86
2022/06/18 02:47:30;;;;;;;3.50;1.63;;;21.80;99.90;;;-144.05;43.19;125687.94;6154138;23;20084;-85
2022/06/18 02:50:08;;;;;;;3.13;1.48;;;21.70;99.90;;;-144.05;43.44;125687.94;6154682;23;20027;-85
2022/06/18 02:52:42;;;;;;;5.25;2.00;;;21.70;99.90;;;-144.05;43.91;125687.94;6154782;23;20339;-85
2022/06/18 02:55:19;;;;;;;3.92;1.80;;;21.60;99.90;;;-144.05;43.72;125687.94;6154626;23;20073;-85
2022/06/18 02:57:52;;;;;;;4.55;1.58;;;21.50;99.90;;;-144.05;44.83;125687.94;6154572;23;20010;-87
2022/06/18 03:00:18;;;;;;;2.70;1.60;;;21.30;99.90;;;-144.05;44.64;125687.94;6154279;23;20009;-85
2022/06/18 03:02:44;;;;;;;2.20;1.50;;;21.30;99.90;;;-144.05;44.38;125687.94;6154815;23;20100;-85
2022/06/18 03:05:30;;;;;;;2.58;1.60;;;21.30;99.90;;;-144.05;44.30;125687.94;6156504;23;20091;-85
2022/06/18 03:07:56;;;;;;;4.95;1.67;;;21.30;99.90;;;-144.05;44.41;125687.94;6154811;23;20010;-87
2022/06/18 03:13:07;;;;;;;4.20;2.13;;;21.30;99.90;;;-144.05;44.72;125687.94;6156498;23;20015;-86
2022/06/18 03:15:33;;;;;;;4.13;1.92;;;21.30;99.90;;;-144.05;44.67;125687.94;6156190;23;20012;-84
2022/06/18 03:18:01;;;;;;;3.92;2.13;;;21.30;99.90;;;-144.05;44.54;125687.94;6154938;23;20096;-85
2022/06/18 03:21:09;;;;;;;4.75;2.30;;;21.30;99.90;;;-144.05;44.71;125687.94;6155222;23;20014;-85
2022/06/18 03:23:36;;;;;;;5.32;2.13;;;21.30;99.90;;;-144.05;44.51;125687.94;6155331;23;20032;-86
2022/06/18 03:26:03;;;;;;;2.92;1.55;;;21.30;99.90;;;-144.05;44.97;125687.94;6154350;23;20013;-85
2022/06/18 03:28:29;;;;;;;6.15;2.05;;;21.30;99.90;;;-144.05;44.77;125687.94;6154514;23;20032;-85
2022/06/18 03:30:55;;;;;;;4.88;1.80;;;21.30;99.90;;;-144.05;44.91;125687.94;6155329;23;20092;-85
2022/06/18 03:33:22;;;;;;;3.25;1.80;;;21.20;99.90;;;-144.05;45.00;125687.94;6156605;23;20087;-86
2022/06/18 03:35:51;;;;;;;4.45;2.10;;;21.30;99.90;;;-144.05;45.18;125687.94;6156268;23;20039;-88
2022/06/18 03:38:19;;;;;;;5.05;1.83;;;21.30;99.90;;;-144.05;45.09;125687.94;6155518;23;20009;-83
2022/06/18 03:40:48;;;;;;;3.10;2.20;;;21.30;99.90;;;-144.05;45.23;125687.94;6159900;23;20120;-89
2022/06/18 03:43:14;;;;;;;4.75;1.90;;;21.30;99.90;;;-144.05;45.10;125687.94;6164261;23;20336;-88
2022/06/18 03:45:44;;;;;;;2.85;1.95;;;21.20;99.90;;;-144.05;45.28;125687.94;6156427;23;20012;-86
2022/06/18 03:48:26;;;;;;;5.00;1.67;;;21.30;99.90;;;-144.05;45.17;125687.94;6157656;23;20006;-89
2022/06/18 03:50:52;;;;;;;1.80;1.48;;;21.30;99.90;;;-144.05;45.03;125687.94;6158329;23;20064;-84
2022/06/18 03:53:18;;;;;;;4.68;2.00;;;21.30;99.90;;;-144.05;45.08;125687.94;6157989;23;20002;-87
2022/06/18 03:55:45;;;;;;;5.03;1.73;;;21.30;99.90;;;-144.05;45.25;125687.94;6157684;23;20025;-85
2022/06/18 03:58:11;;;;;;;4.10;1.70;;;21.30;99.90;;;-144.05;45.04;125687.94;6157283;23;20017;-89
2022/06/18 04:00:37;;;;;;;3.17;1.83;;;21.40;99.90;;;-144.05;44.92;125687.94;6161384;23;20006;-89
2022/06/18 04:03:03;;;;;;;3.38;1.48;;;21.40;99.90;;;-144.05;45.15;125687.94;6172977;23;20029;-80
2022/06/18 04:05:38;;;;;;;4.53;1.75;;;21.40;99.90;;;-144.05;45.19;125687.94;6176904;23;20388;-84
2022/06/18 04:08:05;;;;;;;2.22;1.60;;;21.50;99.90;;;-144.05;44.91;125687.94;6155314;23;20031;-85
2022/06/18 04:10:31;;;;;;;3.78;1.55;;;21.60;99.90;;;-144.05;44.91;125687.94;6180540;23;20467;-85
2022/06/18 04:12:57;;;;;;;7.50;1.92;;;21.50;99.90;;;-144.05;44.53;125687.94;6180740;23;20389;-87
2022/06/18 04:15:23;;;;;;;3.83;1.85;;;21.60;99.90;;;-144.05;44.87;125687.94;6157388;23;20006;-87
2022/06/18 04:17:49;;;;;;;5.32;1.90;;;21.60;99.90;;;-144.05;44.86;125687.94;6157431;23;20022;-87
2022/06/18 04:20:33;;;;;;;2.30;1.35;;;21.70;99.90;;;-144.05;44.83;125687.94;6156675;23;20009;-88
2022/06/18 04:23:02;;;;;;;5.07;1.80;;;21.70;99.90;;;-144.05;44.56;125687.94;6156900;23;20009;-88
2022/06/18 04:25:29;;;;;;;3.47;1.92;;;21.70;99.90;;;-144.05;44.82;125687.94;6162705;23;20012;-86
2022/06/18 04:27:57;;;;;;;6.60;1.75;;;21.80;99.90;;;-144.05;44.85;125687.94;6158046;23;20020;-87
2022/06/18 04:30:28;;;;;;;4.82;1.67;;;21.80;99.90;;;-144.05;44.81;125687.94;6156763;23;20010;-88
2022/06/18 04:32:54;;;;;;;2.80;1.65;;;21.80;99.90;;;-144.05;44.86;125687.94;6158438;23;20029;-85
2022/06/18 04:35:21;;;;;;;4.20;1.65;;;21.90;99.90;;;-144.05;45.14;125687.94;6156861;23;20344;-83
2022/06/18 04:37:48;;;;;;;5.25;2.15;;;21.90;99.90;;;-144.05;44.81;125687.94;6156123;23;20009;-87
2022/06/18 04:40:21;;;;;;;3.42;1.67;;;22.00;99.90;;;-144.05;44.80;125687.94;6155957;23;20014;-82
2022/06/18 04:42:47;;;;;;;3.65;1.50;;;22.00;99.90;;;-144.05;45.05;125687.94;6156632;23;20011;-87
2022/06/18 04:45:14;;;;;;;2.70;1.80;;;22.10;99.90;;;-144.05;44.86;125687.94;6154310;23;20014;-88
2022/06/18 04:47:41;;;;;;;3.00;2.00;;;22.10;99.90;;;-144.05;44.97;125687.94;6154880;23;20036;-86
2022/06/18 04:50:21;;;;;;;5.63;1.77;;;22.10;99.90;;;-144.05;44.60;125687.94;6155737;23;20006;-85
2022/06/18 04:52:47;;;;;;;2.80;1.80;;;22.20;99.90;;;-144.05;44.59;125687.94;6155358;23;20548;-85
2022/06/18 04:55:13;;;;;;;3.47;1.90;;;22.30;99.90;;;-144.05;44.87;125687.94;6156073;23;20061;-85
2022/06/18 04:57:39;;;;;;;2.83;1.77;;;22.30;99.90;;;-144.05;44.76;125687.94;6155836;23;20432;-86
2022/06/18 05:00:08;;;;;;;4.53;1.83;;;22.40;99.90;;;-144.05;45.00;125687.94;6154917;23;20029;-87
2022/06/18 05:02:37;;;;;;;3.72;2.00;;;22.40;99.90;;;-144.05;44.82;125687.94;6157477;23;20068;-87
2022/06/18 05:05:15;;;;;;;3.70;2.10;;;22.50;99.90;;;-144.05;44.72;125687.94;6154909;23;20033;-87
2022/06/18 05:07:41;;;;;;;3.25;1.67;;;22.50;99.90;;;-144.05;44.30;125687.94;6154359;23;20063;-85
2022/06/18 05:10:08;;;;;;;4.47;1.70;;;22.60;99.90;;;-144.05;44.56;125687.94;6154777;23;20014;-83
2022/06/18 05:12:35;;;;;;;4.10;1.90;;;22.70;99.90;;;-144.05;44.42;125687.94;6179405;23;20017;-87
2022/06/18 05:15:01;;;;;;;7.50;2.40;;;22.80;99.90;;;-144.05;44.32;125687.94;6155029;23;20017;-88
2022/06/18 05:17:32;;;;;;;2.80;1.75;;;22.80;99.90;;;-144.05;44.49;125687.94;6155226;23;20016;-88
2022/06/18 05:19:59;;;;;;;3.78;1.80;;;22.90;99.90;;;-144.05;44.83;125687.94;6156066;23;20408;-88
2022/06/18 05:22:27;;;;;;;5.32;1.98;;;23.00;99.90;;;-144.05;44.30;125687.94;6154839;23;20017;-88
2022/06/18 05:24:54;;;;;;;4.38;1.90;;;23.10;99.90;;;-144.05;44.04;125687.94;6156726;23;20671;-87
2022/06/18 05:27:31;;;;;;;4.10;1.98;;;23.20;99.90;;;-144.05;43.57;125687.94;6155293;23;20013;-86
2022/06/18 05:29:57;;;;;;;4.82;2.13;;;23.30;99.90;;;-144.05;43.68;125687.94;6155460;23;20432;-88
2022/06/18 05:32:23;;;;;;;5.05;2.13;;;23.50;99.90;;;-144.05;43.54;125687.94;6157035;23;20006;-89
2022/06/18 05:34:50;;;;;;;5.00;2.13;;;23.50;99.90;;;-144.05;42.82;125687.94;6155655;23;20009;-86
2022/06/18 05:37:22;;;;;;;3.20;1.80;;;23.60;99.90;;;-144.05;43.22;125687.94;6163491;23;20013;-87
2022/06/18 05:39:49;;;;;;;6.82;1.95;;;23.70;99.90;;;-144.05;42.74;125687.94;6167089;23;20032;-87
2022/06/18 05:42:15;;;;;;;4.25;2.38;;;23.90;99.90;;;-144.05;42.90;125687.94;6168814;23;20055;-87
2022/06/18 05:44:41;;;;;;;3.78;2.00;;;24.00;99.90;;;-144.05;42.39;125687.94;6167061;23;20013;-86
2022/06/18 05:47:31;;;;;;;3.20;2.00;;;24.20;99.90;;;-144.05;42.09;125687.94;6166352;23;20013;-85
2022/06/18 05:49:58;;;;;;;3.63;1.60;;;24.30;99.90;;;-144.05;42.72;125687.94;6158098;23;20422;-86
2022/06/18 05:52:27;;;;;;;4.80;1.90;;;24.40;99.90;;;-144.05;42.26;125687.94;6157673;23;20096;-87
2022/06/18 05:54:53;;;;;;;2.70;1.83;;;24.50;99.90;;;-144.05;42.22;125687.94;6157240;23;20009;-87
2022/06/18 05:57:22;;;;;;;4.93;2.03;;;24.60;99.90;;;-144.05;41.62;125687.94;6156894;23;20470;-86
2022/06/18 05:59:49;;;;;;;6.15;2.15;;;24.70;99.90;;;-144.05;41.26;125687.94;6156249;23;20176;-87
2022/06/18 06:02:19;;;;;;;4.20;1.98;;;24.90;99.90;;;-144.05;41.76;125687.94;6156888;23;20017;-88
2022/06/18 06:04:46;;;;;;;5.30;2.28;;;25.10;99.90;;;-144.05;41.70;125687.94;6157241;23;20402;-85
2022/06/18 06:07:24;;;;;;;3.42;1.95;;;25.20;99.90;;;-144.05;40.83;125687.94;6161396;23;20447;-89
2022/06/18 06:12:38;;;;;;;5.38;2.00;;;25.40;99.90;;;-144.05;39.57;125687.94;6162712;23;20020;-91
2022/06/18 06:15:06;;;;;;;3.30;2.30;;;25.50;99.90;;;-144.05;39.75;125687.94;6160366;23;20009;-88
2022/06/18 06:17:33;;;;;;;4.25;2.15;;;25.70;99.90;;;-144.05;39.32;125687.94;6157179;23;20029;-87
2022/06/18 06:20:24;;;;;;;4.97;2.30;;;26.00;99.90;;;-144.05;38.92;125687.94;6157126;23;20367;-85
2022/06/18 06:22:51;;;;;;;5.03;2.20;;;26.30;99.90;;;-144.05;38.46;125687.94;6156110;23;20100;-87
2022/06/18 06:25:17;;;;;;;3.60;2.10;;;26.50;98.40;;;-144.05;37.77;125687.94;6156130;23;20009;-84
2022/06/18 06:27:43;;;;;;;4.95;2.22;;;26.70;96.90;;;-144.05;37.39;125687.94;6155654;23;20013;-84
2022/06/18 06:30:18;;;;;;;6.38;2.00;;;26.80;94.70;;;-144.05;37.68;125687.94;6157606;23;20499;-87
2022/06/18 06:32:47;;;;;;;5.82;1.80;;;26.80;95.50;;;-144.05;37.44;125687.94;6155085;23;20005;-86
2022/06/18 06:35:14;;;;;;;3.85;2.00;;;27.10;94.50;;;-144.05;36.38;125687.94;6157888;23;20005;-89
2022/06/18 06:37:41;;;;;;;6.97;2.65;;;27.30;91.90;;;-144.05;36.63;125687.94;6155893;23;20020;-86
2022/06/18 06:40:09;;;;;;;3.97;2.05;;;27.30;91.40;;;-144.05;36.59;125687.94;6181630;23;20108;-87
2022/06/18 06:42:42;;;;;;;4.22;2.00;;;27.60;91.70;;;-144.05;36.06;125687.94;6155957;23;20075;-89
2022/06/18 06:45:19;;;;;;;3.78;2.20;;;27.80;90.50;;;-144.05;35.28;125687.94;6158451;23;20005;-88
2022/06/18 06:47:46;;;;;;;3.45;1.70;;;27.80;85.30;;;-144.05;35.60;125687.94;6164077;23;20013;-88
2022/06/18 06:50:16;;;;;;;6.05;2.30;;;28.00;86.70;;;-144.05;35.11;125687.94;6161315;23;20005;-89
2022/06/18 06:52:43;;;;;;;6.93;2.30;;;28.20;83.80;;;-144.05;34.65;125687.94;6161160;23;20009;-83
2022/06/18 06:58:16;;;;;;;7.88;2.15;;;28.30;82.50;;;-144.05;34.64;125687.94;6157389;23;20025;-88
2022/06/18 07:00:53;;;;;;;6.53;2.58;;;28.30;79.70;;;-144.05;35.00;125687.94;6155231;23;20029;-86
2022/06/18 07:03:26;;;;;;;4.60;1.90;;;28.30;80.00;;;-144.05;34.93;125687.94;6155549;23;20012;-87
2022/06/18 07:05:52;;;;;;;6.45;2.50;;;28.40;80.30;;;-144.05;34.60;125687.94;6158959;23;20009;-87
2022/06/18 07:08:18;;;;;;;5.07;2.38;;;28.30;78.20;;;-144.05;34.70;125687.94;6166477;23;20032;-90
2022/06/18 07:10:44;;;;;;;7.00;2.08;;;28.50;78.30;;;-144.05;34.22;125687.94;6172180;23;20002;-87
2022/06/18 07:13:11;;;;;;;5.82;2.17;;;28.70;77.80;;;-144.05;34.41;125687.94;6165700;23;20033;-90
2022/06/18 07:15:37;;;;;;;6.22;2.58;;;28.80;77.20;;;-144.05;34.17;125687.94;6169281;23;20009;-84
2022/06/18 07:18:14;;;;;;;3.30;1.95;;;28.80;76.00;;;-144.05;33.90;125687.94;6160903;23;20020;-88
2022/06/18 07:20:40;;;;;;;4.18;2.20;;;28.90;75.40;;;-144.05;34.01;125687.94;6157720;23;20084;-89
2022/06/18 07:23:07;;;;;;;5.82;2.28;;;28.90;74.90;;;-144.05;33.87;125687.94;6160435;23;20073;-86
2022/06/18 07:25:33;;;;;;;4.88;2.70;;;29.20;75.50;;;-144.05;33.92;125687.94;6161235;23;20384;-88
2022/06/18 07:27:59;;;;;;;5.93;2.50;;;29.20;75.00;;;-144.05;33.77;125687.94;6161331;23;20194;-88
2022/06/18 07:30:25;;;;;;;7.38;2.70;;;29.10;74.20;;;-144.05;34.24;125687.94;6154916;23;20292;-88
2022/06/18 07:32:52;;;;;;;6.43;2.20;;;29.10;74.80;;;-144.05;33.11;125687.94;6156740;23;20013;-91
2022/06/18 07:35:31;;;;;;;5.32;2.28;;;29.30;72.50;;;-144.05;33.08;125687.94;6166167;23;20009;-88
2022/06/18 07:38:01;;;;;;;6.45;2.30;;;29.40;71.30;;;-144.05;32.68;125687.94;6163784;23;20033;-89
2022/06/18 07:40:37;;;;;;;7.90;2.50;;;29.70;71.70;;;-144.05;32.87;125687.94;6158498;23;20010;-85
2022/06/18 07:43:08;;;;;;;6.78;2.72;;;29.50;69.50;;;-144.05;33.15;125687.94;6156586;23;20033;-83
2022/06/18 07:45:35;;;;;;;5.38;2.22;;;29.50;69.80;;;-144.05;32.99;125687.94;6158557;23;20398;-85
2022/06/18 07:48:01;;;;;;;3.72;2.22;;;29.50;69.90;;;-144.05;33.51;125687.94;6156597;23;20329;-87
2022/06/18 07:50:29;;;;;;;5.93;2.40;;;29.20;69.10;;;-144.05;33.97;125687.94;6158679;23;20005;-84
2022/06/18 07:52:55;;;;;;;6.88;2.50;;;29.10;71.10;;;-144.05;33.37;125687.94;6157163;23;20001;-85
2022/06/18 07:55:27;;;;;;;9.90;2.75;;;29.20;70.10;;;-144.05;33.32;125687.94;6157870;23;20077;-89
2022/06/18 07:57:54;;;;;;;6.40;2.45;;;29.20;70.00;;;-144.05;32.53;125687.94;6156084;23;20083;-86
2022/06/18 08:00:23;;;;;;;6.72;2.45;;;29.50;68.50;;;-144.05;31.74;125687.94;6184880;23;20520;-87
2022/06/18 08:02:50;;;;;;;4.28;2.15;;;29.80;67.30;;;-144.05;32.56;125687.94;6159695;23;20502;-88
2022/06/18 08:05:27;;;;;;;6.13;2.30;;;30.20;69.50;;;-144.05;31.71;125687.94;6155217;23;20020;-85
2022/06/18 08:07:53;;;;;;;6.88;2.40;;;30.40;66.40;;;-144.05;31.53;125687.94;6156452;23;20096;-86
2022/06/18 08:10:20;;;;;;;8.27;2.55;;;30.70;66.50;;;-144.05;31.10;125687.94;6156924;23;20010;-87
2022/06/18 08:12:47;;;;;;;6.63;2.45;;;30.60;63.40;;;-144.05;31.86;125687.94;6158694;23;20009;-87
2022/06/18 08:15:14;;;;;;;8.38;2.75;;;30.30;63.90;;;-144.05;31.69;125687.94;6160396;23;20006;-82
2022/06/18 08:17:40;;;;;;;3.67;2.42;;;30.40;65.00;;;-144.05;31.84;125687.94;6180365;23;20081;-84
2022/06/18 08:20:08;;;;;;;7.72;2.45;;;30.50;65.60;;;-144.05;31.25;125687.94;6162181;23;20435;-84
2022/06/18 08:22:40;;;;;;;6.13;2.50;;;30.60;63.60;;;-144.05;30.95;125687.94;6156847;23;20033;-87
2022/06/18 08:25:11;;;;;;;5.60;2.38;;;30.90;63.60;;;-144.05;31.27;125687.94;6156994;23;20009;-88
2022/06/18 08:27:40;;;;;;;6.38;2.72;;;31.20;64.30;;;-144.05;30.38;125687.94;6156101;23;20072;-88
2022/06/18 08:30:07;;;;;;;13.60;3.15;;;31.40;62.30;;;-144.05;30.30;125687.94;6157166;23;20005;-90
2022/06/18 08:32:33;;;;;;;8.65;2.80;;;31.60;62.00;;;-144.05;30.35;125687.94;6161912;23;20009;-89
2022/06/18 08:34:59;;;;;;;8.93;2.88;;;31.70;62.10;;;-144.05;30.49;125687.94;6161379;23;20053;-89
2022/06/18 08:37:26;;;;;;;6.90;2.55;;;31.50;60.30;;;-144.05;30.83;125687.94;6159810;23;20013;-86
2022/06/18 08:39:53;;;;;;;8.73;2.45;;;31.50;61.40;;;-144.05;30.26;125687.94;6161514;23;20010;-90
2022/06/18 08:42:46;;;;;;;7.00;2.53;;;31.70;60.60;;;-144.05;30.14;125687.94;6186707;23;20009;-87
2022/06/18 08:45:25;;;;;;;9.07;2.40;;;31.90;60.40;;;-144.05;29.88;125687.94;6157832;23;20018;-89
2022/06/18 08:48:46;;;;;;;5.80;2.33;;;32.10;59.50;;;-144.05;29.73;125687.94;6160389;23;20060;-88
2022/06/18 08:51:48;;;;;;;6.10;2.53;;;32.20;59.00;;;-144.05;29.41;125687.94;6155946;23;20040;-87
2022/06/18 08:54:35;;;;;;;6.78;2.13;;;32.60;59.10;;;-144.05;29.42;125687.94;6157268;23;20309;-88
2022/06/18 08:57:35;;;;;;;7.40;3.17;;;32.40;57.90;;;-144.05;29.73;125687.94;6157938;23;20017;-90
2022/06/18 09:00:37;;;;;;;12.57;2.78;;;32.10;58.00;;;-144.05;29.81;125687.94;6157291;23;20009;-89
2022/06/18 09:03:31;;;;;;;7.18;2.20;;;32.00;58.40;;;-144.05;30.36;125687.94;6156305;23;20113;-93
2022/06/18 09:06:39;;;;;;;6.80;2.55;;;32.40;61.10;;;-144.05;29.03;125687.94;6158248;23;20005;-88
2022/06/18 09:09:30;;;;;;;6.10;2.30;;;32.80;57.60;;;-144.05;29.32;125687.94;6157129;23;20014;-90
2022/06/18 09:12:14;;;;;;;5.40;2.13;;;33.30;58.60;;;-144.05;28.47;125687.94;6156373;23;20010;-89
2022/06/18 09:15:05;;;;;;;7.28;2.50;;;33.20;55.50;;;-144.05;28.61;125687.94;6156085;23;20052;-87
2022/06/18 09:17:42;;;;;;;9.10;2.75;;;33.20;55.40;;;-144.05;28.92;125687.94;6155907;23;20060;-89
2022/06/18 09:20:53;;;;;;;5.40;2.20;;;32.90;55.90;;;-144.05;30.04;125687.94;6157897;23;20006;-90
2022/06/18 09:23:57;;;;;;;8.90;2.80;;;32.80;58.60;;;-144.05;28.79;125687.94;6145131;23;20005;-87
2022/06/18 09:26:38;;;;;;;7.65;2.90;;;32.90;56.70;;;-144.05;29.05;125687.94;6156275;23;20013;-89
2022/06/18 09:29:37;;;;;;;5.45;2.25;;;33.30;57.50;;;-144.05;28.75;125687.94;6156121;23;20005;-90
2022/06/18 09:32:17;;;;;;;5.97;2.42;;;33.90;57.70;;;-144.05;27.92;125687.94;6157110;23;20028;-89
2022/06/18 09:35:01;;;;;;;5.85;2.40;;;33.90;54.50;;;-144.05;27.96;125687.94;6158102;23;20009;-87
2022/06/18 09:37:58;;;;;;;8.18;2.60;;;34.00;54.00;;;-144.05;28.14;125687.94;6157670;23;20060;-85
2022/06/18 09:40:37;;;;;;;7.10;2.60;;;34.10;55.70;;;-144.05;27.42;125687.94;6147762;23;20029;-89
2022/06/18 09:43:44;;;;;;;9.57;2.53;;;34.20;53.90;;;-144.05;28.27;125687.94;6158350;23;20009;-87
2022/06/18 09:46:25;;;;;;;8.82;2.38;;;33.90;54.30;;;-144.05;28.56;125687.94;6157885;23;20074;-89
2022/06/18 09:48:53;;;;;;;10.65;2.83;;;33.90;55.50;;;-144.05;28.36;125687.94;6158447;23;20005;-87
2022/06/18 09:52:10;;;;;;;12.18;3.17;;;33.70;53.60;;;-144.05;28.42;125687.94;6159519;23;20078;-86
2022/06/18 09:54:50;;;;;;;;;;;33.60;54.10;;;-144.05;28.20;125687.94;6110942;23;20048;-88
2022/06/18 09:57:26;;;;;;;9.43;2.80;;;33.90;53.80;;;-144.05;27.81;125687.94;6157363;23;19905;-86
2022/06/18 10:00:19;;;;;;;9.73;2.53;;;33.90;53.20;;;-144.05;27.62;125687.94;6157267;23;20020;-88
2022/06/18 10:03:01;;;;;;;10.85;2.80;;;34.10;53.20;;;-144.05;27.69;125687.94;6157059;23;20091;-89
2022/06/18 10:08:37;;;;;;;11.88;3.10;;;34.10;52.40;;;-144.05;27.72;125687.94;6158833;23;20359;-88
2022/06/18 10:11:08;;;;;;;7.28;2.53;;;34.40;53.00;;;-144.05;27.07;125687.94;6158406;23;20017;-88
2022/06/18 10:13:47;;;;;;;8.85;2.75;;;34.50;52.50;;;-144.05;27.04;125687.94;6159339;23;20399;-85
2022/06/18 10:17:05;;;;;;;9.60;2.78;;;34.70;51.80;;;-144.05;27.06;125687.94;6162195;23;20005;-87
2022/06/18 10:20:07;;;;;;;10.00;3.20;;;34.90;52.50;;;-144.05;28.00;125687.94;6164182;23;20402;-88
2022/06/18 10:23:03;;;;;;;5.07;2.20;;;34.70;53.10;;;-144.05;26.73;125687.94;6168056;23;20041;-86
2022/06/18 10:25:43;;;;;;;7.97;3.00;;;34.90;51.20;;;-144.05;27.31;125687.94;6182236;23;20028;-80
2022/06/18 10:28:21;;;;;;;10.68;3.05;;;35.20;53.10;;;-144.05;26.24;125687.94;6191198;23;20021;-89
2022/06/18 10:31:23;;;;;;;10.75;2.83;;;35.30;50.60;;;-144.05;26.81;125687.94;6157781;23;20052;-88
2022/06/18 10:34:44;;;;;;;11.20;2.97;;;35.60;52.20;;;-144.05;27.25;125687.94;6159121;23;20001;-88
2022/06/18 10:37:36;;;;;;;8.65;2.38;;;35.00;51.40;;;-144.05;27.54;125687.94;6156094;23;20381;-84
2022/06/18 10:40:43;;;;;;;9.32;3.08;;;34.80;52.00;;;-144.05;27.02;125687.94;6159427;23;20399;-89
2022/06/18 10:43:54;;;;;;;8.38;2.85;;;34.50;51.10;;;-144.05;27.96;125687.94;6160109;23;20010;-87
2022/06/18 10:46:22;;;;;;;5.03;2.45;;;34.40;52.70;;;-144.05;27.96;125687.94;6159145;23;20005;-87